Sunday, October 22, 2017, 5:01 PM EDT
Back to Local

KSMQ, Somerville Somerset Airport

Location: Bedminster, NJ, United States Lat: 40.617
Local Time: 5:01 PM EDT (21:01 GMT) Lon: -74.667
Time Zone: US/Eastern Elev: 104 ft

Show me the last for .
Show Decoded

2017-10-22 15:53 METAR KSMQ 221953Z AUTO 18006KT 10SM CLR 25/08 A3032 RMK AO2 SLP269 T02500083 =
2017-10-22 14:53 METAR KSMQ 221853Z AUTO 20005KT 10SM CLR 25/07 A3033 RMK AO2 SLP270 T02500072 =
2017-10-22 13:53 METAR KSMQ 221753Z AUTO VRB06KT 10SM CLR 24/09 A3035 RMK AO2 SLP278 T02440089
                 10250 20050 58015 =
2017-10-22 12:53 METAR KSMQ 221653Z AUTO 00000KT 10SM CLR 24/11 A3037 RMK AO2 SLP284 T02390106 =
2017-10-22 11:53 METAR KSMQ 221553Z AUTO 20003KT 9SM CLR 22/10 A3038 RMK AO2 SLP288 T02170100 =
2017-10-22 10:53 METAR KSMQ 221453Z AUTO 00000KT 10SM CLR 18/10 A3039 RMK AO2 SLP293 T01780100
                 58000 =
2017-10-22 09:53 METAR KSMQ 221353Z AUTO 00000KT 10SM CLR 13/10 A3040 RMK AO2 SLP294 T01330100 =
2017-10-22 08:53 METAR KSMQ 221253Z AUTO 00000KT 10SM CLR 08/07 A3041 RMK AO2 SLP297 T00830072 =
2017-10-22 07:53 METAR KSMQ 221153Z AUTO 10SM CLR 05/05 A3039 RMK AO2 SLP294 T00500050 10061
                 20039 53015 =
2017-10-22 06:53 METAR KSMQ 221053Z AUTO 00000KT 10SM CLR 04/04 A3037 RMK AO2 SLP286 T00440039 =
2017-10-22 05:53 METAR KSMQ 220953Z AUTO 00000KT 10SM CLR 04/04 A3036 RMK AO2 SLP282 T00440044 =
2017-10-22 04:53 METAR KSMQ 220853Z AUTO 00000KT 9SM CLR 05/04 A3035 RMK AO2 SLP278 T00500044
                 53001 =
2017-10-22 03:53 METAR KSMQ 220753Z AUTO 00000KT 10SM CLR 06/05 A3035 RMK AO2 SLP277 T00560050 =
2017-10-22 02:53 METAR KSMQ 220653Z AUTO 33003KT 9SM CLR 06/06 A3035 RMK AO2 SLP276 T00560056 =
2017-10-22 01:53 METAR KSMQ 220553Z AUTO 00000KT 10SM CLR 06/06 A3035 RMK AO2 SLP277 T00610061
                 10128 20061 50002 =
2017-10-22 00:53 METAR KSMQ 220453Z AUTO 32003KT 10SM CLR 07/07 A3035 RMK AO2 SLP278 T00720067
                 402610022 =
2017-10-21 23:53 METAR KSMQ 220353Z AUTO 00000KT 10SM CLR 08/07 A3035 RMK AO2 SLP278 T00780072 =
2017-10-21 22:53 METAR KSMQ 220253Z AUTO 00000KT 10SM CLR 09/08 A3034 RMK AO2 SLP276 T00890078
                 50006 =
2017-10-21 21:53 METAR KSMQ 220153Z AUTO 00000KT 10SM CLR 10/09 A3035 RMK AO2 SLP278 T01000089 =
2017-10-21 20:53 METAR KSMQ 220053Z AUTO 00000KT 10SM CLR 11/09 A3035 RMK AO2 SLP277 T01110089 =
2017-10-21 19:53 METAR KSMQ 212353Z AUTO 00000KT 10SM CLR 13/09 A3033 RMK AO2 SLP271 T01280089
                 10261 20128 51014 =
2017-10-21 18:53 METAR KSMQ 212253Z AUTO 00000KT 10SM CLR 15/09 A3032 RMK AO2 SLP269 T01500094 =
2017-10-21 17:53 METAR KSMQ 212153Z AUTO 00000KT 10SM CLR 19/09 A3031 RMK AO2 SLP263 T01940089 =

Support USWX by starting your Amazon purchase here.